Time;durP1;ratioP1;P1;durP2;ratioP2;P2;SDS_P1;SDS_P2;PMS_P1;PMS_P2;Temp;Humidity;BMP_temperature;BMP_pressure;BME280_temperature;BME280_humidity;BME280_pressure;Samples;Min_cycle;Max_cycle;Signal;HPM_P1;HPM_P2
2022/01/22 00:00:23;;;;;;;9.10;5.20;;;7.40;99.90;;;;;;5035519;28;20095;-47
2022/01/22 00:02:49;;;;;;;6.93;4.32;;;7.30;99.90;;;;;;5035537;28;20400;-48
2022/01/22 00:05:17;;;;;;;10.00;4.82;;;7.40;99.90;;;;;;5053595;28;20104;-49
2022/01/22 00:07:43;;;;;;;13.40;5.35;;;7.40;99.90;;;;;;5035440;28;20033;-46
2022/01/22 00:10:14;;;;;;;7.45;4.95;;;7.40;99.90;;;;;;5035598;28;20025;-47
2022/01/22 00:15:13;;;;;;;8.05;4.75;;;7.30;99.90;;;;;;5053258;28;20290;-48
2022/01/22 00:17:39;;;;;;;8.20;3.90;;;7.30;99.90;;;;;;5035501;28;20037;-48
2022/01/22 00:20:06;;;;;;;9.10;4.28;;;7.40;99.90;;;;;;5037416;28;20083;-47
2022/01/22 00:22:35;;;;;;;6.55;4.70;;;7.40;99.90;;;;;;5039290;28;20029;-47
2022/01/22 00:25:02;;;;;;;10.20;4.35;;;7.40;99.90;;;;;;5039801;28;20025;-51
2022/01/22 00:27:29;;;;;;;6.72;4.63;;;7.50;99.90;;;;;;5039120;28;20109;-45
2022/01/22 00:29:55;;;;;;;7.65;4.95;;;7.40;99.90;;;;;;5057046;28;20464;-46
2022/01/22 00:32:21;;;;;;;10.40;4.88;;;7.30;99.90;;;;;;5057642;28;20104;-49
2022/01/22 00:34:47;;;;;;;7.78;4.47;;;7.30;99.90;;;;;;5039203;28;20021;-47
2022/01/22 00:37:13;;;;;;;10.02;4.78;;;7.20;99.90;;;;;;5039277;28;20024;-47
2022/01/22 00:39:39;;;;;;;7.07;4.45;;;7.30;99.90;;;;;;5056844;28;20025;-46
2022/01/22 00:42:14;;;;;;;9.15;4.90;;;7.30;99.90;;;;;;5040165;28;20025;-48
2022/01/22 00:44:41;;;;;;;8.43;5.45;;;7.30;99.90;;;;;;5056900;28;20053;-48
2022/01/22 00:47:07;;;;;;;8.70;4.32;;;7.20;99.90;;;;;;5056770;28;20024;-46
2022/01/22 00:49:34;;;;;;;13.95;4.78;;;7.20;99.90;;;;;;5057056;28;20116;-48
2022/01/22 00:52:00;;;;;;;8.15;4.70;;;7.20;99.90;;;;;;5039138;28;20017;-46
2022/01/22 00:54:25;;;;;;;10.73;4.82;;;7.10;99.90;;;;;;5057026;28;20036;-47
2022/01/22 00:56:51;;;;;;;8.60;4.85;;;7.10;99.90;;;;;;5056478;28;20021;-49
2022/01/22 00:59:17;;;;;;;8.95;4.40;;;7.00;99.90;;;;;;5038776;28;20030;-48
2022/01/22 01:01:43;;;;;;;7.18;4.30;;;7.10;99.90;;;;;;5056847;28;20025;-52
2022/01/22 01:04:10;;;;;;;8.55;5.00;;;7.10;99.90;;;;;;5038698;28;20083;-46
2022/01/22 01:06:36;;;;;;;7.30;4.03;;;7.10;99.90;;;;;;5039452;28;20074;-46
2022/01/22 01:09:05;;;;;;;6.78;3.95;;;7.10;99.90;;;;;;5038531;28;20071;-45
2022/01/22 01:11:33;;;;;;;6.30;3.30;;;7.20;99.90;;;;;;5038400;28;20027;-50
2022/01/22 01:14:01;;;;;;;7.05;3.00;;;7.20;99.90;;;;;;5056623;28;20021;-47
2022/01/22 01:33:00;;;;;;;3.10;2.00;;;7.30;99.90;;;;;;5056120;28;20028;-48
2022/01/22 01:35:27;;;;;;;1.95;1.40;;;7.20;99.90;;;;;;5038868;28;20052;-46
2022/01/22 01:37:56;;;;;;;2.03;1.40;;;7.20;99.90;;;;;;5055894;28;20530;-49
2022/01/22 01:40:23;;;;;;;2.15;1.55;;;7.20;99.90;;;;;;5038184;28;20055;-46
2022/01/22 01:43:05;;;;;;;1.75;1.27;;;7.20;99.90;;;;;;5038714;28;20035;-46
2022/01/22 01:45:31;;;;;;;1.67;1.25;;;7.10;99.90;;;;;;5037934;28;20032;-46
2022/01/22 01:48:02;;;;;;;2.03;1.40;;;7.20;99.90;;;;;;5055679;28;20033;-47
2022/01/22 01:50:30;;;;;;;1.65;1.23;;;7.20;99.90;;;;;;5037802;28;20029;-47
2022/01/22 01:55:50;;;;;;;1.45;1.17;;;7.20;99.90;;;;;;5055950;28;20025;-48
2022/01/22 01:58:17;;;;;;;2.08;1.30;;;7.10;99.90;;;;;;5037905;28;20025;-46
2022/01/22 02:00:44;;;;;;;3.63;1.73;;;7.00;99.90;;;;;;5055381;28;20033;-49
2022/01/22 02:03:12;;;;;;;1.65;1.13;;;7.00;99.90;;;;;;5055413;28;20041;-46
2022/01/22 02:05:38;;;;;;;1.70;1.45;;;6.90;99.90;;;;;;5055380;28;20496;-49
2022/01/22 02:08:05;;;;;;;2.10;1.40;;;7.00;99.90;;;;;;5055255;28;20100;-46
2022/01/22 02:10:35;;;;;;;2.38;1.33;;;7.00;99.90;;;;;;5055483;28;20104;-46
2022/01/22 02:24:00;;;;;;;1.67;1.30;;;7.10;99.90;;;;;;5055419;28;20035;-50
2022/01/22 02:26:27;;;;;;;2.25;1.10;;;7.00;99.90;;;;;;5054973;28;20047;-46
2022/01/22 02:28:53;;;;;;;1.35;1.25;;;7.00;99.90;;;;;;5054903;28;20025;-47
2022/01/22 02:31:37;;;;;;;1.50;1.40;;;7.00;99.90;;;;;;5037031;28;20113;-46
2022/01/22 02:37:11;;;;;;;1.20;1.10;;;7.00;99.90;;;;;;4973977;28;20019;-46
2022/01/22 02:39:38;;;;;;;1.77;1.08;;;7.00;99.90;;;;;;5024518;28;20036;-48
2022/01/22 02:42:05;;;;;;;1.15;1.05;;;7.00;99.90;;;;;;5054161;28;20032;-48
2022/01/22 02:44:45;;;;;;;1.50;1.38;;;7.00;99.90;;;;;;5054607;28;20029;-45
2022/01/22 02:47:11;;;;;;;1.30;1.13;;;7.00;99.90;;;;;;5054613;28;20020;-47
2022/01/22 02:49:37;;;;;;;1.23;1.13;;;7.00;99.90;;;;;;5037431;28;20025;-46
2022/01/22 02:52:07;;;;;;;1.13;1.02;;;6.90;99.90;;;;;;5036664;28;20075;-46
2022/01/22 02:54:33;;;;;;;3.35;1.00;;;7.00;99.90;;;;;;5036875;28;20017;-48
2022/01/22 02:56:59;;;;;;;0.90;0.90;;;7.00;99.90;;;;;;5054406;28;20028;-48
2022/01/22 02:59:24;;;;;;;0.98;0.88;;;7.00;99.90;;;;;;5036499;28;20478;-46
2022/01/22 03:01:51;;;;;;;1.25;1.00;;;7.00;99.90;;;;;;5036779;28;20093;-45
2022/01/22 03:04:17;;;;;;;1.30;1.02;;;7.10;99.90;;;;;;5054243;28;20555;-48
2022/01/22 03:06:43;;;;;;;1.13;1.10;;;7.00;99.90;;;;;;5053997;28;20021;-45
2022/01/22 03:09:11;;;;;;;1.20;0.90;;;7.00;99.90;;;;;;5054100;28;20027;-46
2022/01/22 03:12:12;;;;;;;0.75;0.75;;;6.90;99.90;;;;;;5054349;28;20014;-46
2022/01/22 03:15:27;;;;;;;0.90;0.90;;;7.00;99.90;;;;;;5053749;28;20021;-47
2022/01/22 03:28:40;;;;;;;1.48;1.38;;;7.00;99.90;;;;;;5053730;28;20032;-47
2022/01/22 03:31:05;;;;;;;1.08;0.95;;;6.90;99.90;;;;;;5053798;28;20025;-46
2022/01/22 03:33:31;;;;;;;0.77;0.77;;;7.10;99.90;;;;;;5035898;28;20025;-47
2022/01/22 03:35:59;;;;;;;1.00;0.90;;;7.10;99.90;;;;;;5035765;28;20021;-46
2022/01/22 03:38:25;;;;;;;1.17;0.85;;;7.00;99.90;;;;;;5035734;28;20025;-48
2022/01/22 03:40:51;;;;;;;0.80;0.77;;;7.00;99.90;;;;;;5036149;28;20025;-48
2022/01/22 03:43:17;;;;;;;0.82;0.82;;;7.00;99.90;;;;;;5036007;28;20107;-47
2022/01/22 03:45:43;;;;;;;1.30;1.20;;;7.00;99.90;;;;;;5035874;28;20029;-47
2022/01/22 03:48:09;;;;;;;3.13;0.98;;;7.10;99.90;;;;;;5053598;28;20085;-48
2022/01/22 03:50:34;;;;;;;0.70;0.70;;;7.20;99.90;;;;;;5053427;28;20033;-47
2022/01/22 03:53:00;;;;;;;1.08;0.98;;;7.10;99.90;;;;;;5035582;28;20489;-47
2022/01/22 03:57:55;;;;;;;0.85;0.85;;;7.10;99.90;;;;;;5053642;28;20093;-49
2022/01/22 04:00:20;;;;;;;2.55;0.80;;;7.20;99.90;;;;;;5035346;28;20025;-52
2022/01/22 04:05:32;;;;;;;0.95;0.85;;;7.10;99.90;;;;;;5053910;28;20040;-49
2022/01/22 04:08:12;;;;;;;1.38;0.90;;;7.00;99.90;;;;;;5035305;28;20029;-47
2022/01/22 04:10:38;;;;;;;0.90;0.90;;;6.90;99.90;;;;;;5035973;28;20039;-46
2022/01/22 04:13:10;;;;;;;1.00;0.90;;;6.80;99.90;;;;;;5035459;28;20025;-46
2022/01/22 04:15:39;;;;;;;0.75;0.75;;;6.90;99.90;;;;;;5035324;28;20055;-51
2022/01/22 04:28:46;;;;;;;1.15;1.10;;;6.90;99.90;;;;;;5052999;28;20021;-47
2022/01/22 04:31:12;;;;;;;0.95;0.95;;;6.80;99.90;;;;;;5053383;28;20052;-47
2022/01/22 04:33:38;;;;;;;1.65;1.00;;;6.80;99.90;;;;;;5035603;28;20075;-49
2022/01/22 04:36:04;;;;;;;1.20;1.10;;;6.80;99.90;;;;;;5034967;28;20041;-49
2022/01/22 04:38:30;;;;;;;1.35;1.10;;;6.80;99.90;;;;;;5053559;28;20033;-45
2022/01/22 04:40:55;;;;;;;0.90;0.90;;;6.80;99.90;;;;;;5052998;28;20021;-51
2022/01/22 04:43:21;;;;;;;1.15;1.00;;;6.70;99.90;;;;;;5052902;28;20021;-50
2022/01/22 04:55:48;;;;;;;1.25;1.15;;;6.70;99.90;;;;;;5053031;28;20021;-48
2022/01/22 04:58:14;;;;;;;0.98;0.95;;;6.70;99.90;;;;;;5035017;28;20025;-48
2022/01/22 05:00:43;;;;;;;1.33;1.23;;;6.70;99.90;;;;;;5034768;28;20066;-47
2022/01/22 05:03:10;;;;;;;1.42;1.30;;;6.80;99.90;;;;;;5035133;28;20036;-47
2022/01/22 05:05:35;;;;;;;1.40;1.30;;;6.80;99.90;;;;;;5036142;28;20056;-47
2022/01/22 05:08:01;;;;;;;2.53;1.52;;;6.80;99.90;;;;;;5056330;28;20025;-46
2022/01/22 05:10:27;;;;;;;1.88;1.50;;;6.80;99.90;;;;;;5038662;28;20033;-47
2022/01/22 05:12:53;;;;;;;1.90;1.40;;;6.80;99.90;;;;;;5056344;28;20025;-47
2022/01/22 05:15:20;;;;;;;1.42;1.33;;;6.90;99.90;;;;;;5056623;28;20021;-47
2022/01/22 05:17:47;;;;;;;2.25;1.50;;;6.80;99.90;;;;;;5038217;28;20116;-47
2022/01/22 05:20:20;;;;;;;2.25;1.60;;;6.80;99.90;;;;;;5038295;28;20032;-48
2022/01/22 05:25:39;;;;;;;2.50;2.17;;;6.70;99.90;;;;;;5056448;28;20432;-47
2022/01/22 05:38:31;;;;;;;3.50;1.77;;;6.90;99.90;;;;;;5056454;28;20108;-50
2022/01/22 05:40:57;;;;;;;3.63;1.60;;;6.90;99.90;;;;;;5037869;28;20037;-51
2022/01/22 05:43:23;;;;;;;2.60;2.10;;;7.00;99.90;;;;;;5038248;28;20123;-46
2022/01/22 05:45:48;;;;;;;2.00;1.60;;;6.90;99.90;;;;;;5038733;28;20115;-47
2022/01/22 05:48:14;;;;;;;2.72;1.83;;;7.00;99.90;;;;;;5055860;28;20052;-48
2022/01/22 05:50:53;;;;;;;2.00;1.80;;;7.00;99.90;;;;;;5038087;28;20032;-47
2022/01/22 06:01:07;;;;;;;2.63;1.98;;;6.90;99.90;;;;;;5056008;28;20143;-47
2022/01/22 06:03:33;;;;;;;2.88;1.88;;;7.00;99.90;;;;;;5037598;28;20036;-48
2022/01/22 06:05:59;;;;;;;2.17;1.90;;;7.00;99.90;;;;;;5055336;28;20025;-47
2022/01/22 06:08:30;;;;;;;1.80;1.60;;;7.10;99.90;;;;;;5037822;28;20032;-47
2022/01/22 06:10:58;;;;;;;3.78;2.60;;;7.20;99.90;;;;;;5038236;28;20036;-50
2022/01/22 06:13:30;;;;;;;2.92;2.10;;;7.10;99.90;;;;;;5055350;28;20042;-48
2022/01/22 06:15:56;;;;;;;3.22;2.33;;;7.10;99.90;;;;;;5037227;28;20036;-47
2022/01/22 06:18:22;;;;;;;3.78;2.00;;;7.00;99.90;;;;;;5037718;28;20033;-47
2022/01/22 06:20:47;;;;;;;3.20;2.42;;;7.10;99.90;;;;;;5037239;28;20048;-46
2022/01/22 06:23:13;;;;;;;4.40;2.90;;;7.10;99.90;;;;;;5054981;28;20055;-48
2022/01/22 06:25:39;;;;;;;3.00;2.60;;;7.00;99.90;;;;;;5037429;28;20055;-47
2022/01/22 06:28:05;;;;;;;4.25;2.60;;;7.00;99.90;;;;;;5037823;28;20028;-51
2022/01/22 06:30:32;;;;;;;3.72;2.67;;;6.90;99.90;;;;;;5037015;28;20496;-51
2022/01/22 06:32:57;;;;;;;4.93;2.72;;;6.90;99.90;;;;;;5055145;28;20017;-49
2022/01/22 06:35:23;;;;;;;11.07;5.57;;;6.90;99.90;;;;;;5054859;28;20017;-48
2022/01/22 06:37:50;;;;;;;7.70;2.70;;;6.80;99.90;;;;;;5054722;28;20056;-47
2022/01/22 06:42:41;;;;;;;10.38;5.20;;;6.90;99.90;;;;;;5054959;28;20025;-47
2022/01/22 06:45:08;;;;;;;9.07;4.20;;;6.90;99.90;;;;;;5054557;28;20065;-47
2022/01/22 06:47:34;;;;;;;5.13;3.45;;;6.80;99.90;;;;;;5054514;28;20048;-48
2022/01/22 06:50:00;;;;;;;6.22;3.72;;;6.80;99.90;;;;;;5036626;28;20047;-46
2022/01/22 06:52:26;;;;;;;6.25;3.38;;;6.80;99.90;;;;;;5036718;28;20021;-47
2022/01/22 06:54:52;;;;;;;3.05;2.08;;;6.90;99.90;;;;;;5054429;28;20024;-48
2022/01/22 06:57:18;;;;;;;7.20;4.85;;;6.90;99.90;;;;;;5036429;28;20021;-48
2022/01/22 06:59:43;;;;;;;8.32;5.28;;;7.00;99.90;;;;;;5036440;28;20088;-47
2022/01/22 07:02:10;;;;;;;10.95;7.25;;;6.90;99.90;;;;;;5036782;28;20028;-47
2022/01/22 07:04:37;;;;;;;6.43;4.47;;;6.80;99.90;;;;;;5036350;28;20029;-50
2022/01/22 07:07:04;;;;;;;6.10;4.03;;;6.80;99.90;;;;;;5036235;28;20052;-49
2022/01/22 07:09:31;;;;;;;11.50;7.68;;;6.90;99.90;;;;;;5036482;28;20056;-50
2022/01/22 07:11:57;;;;;;;7.93;5.53;;;6.90;99.90;;;;;;5036697;28;20025;-47
2022/01/22 07:14:22;;;;;;;6.82;4.80;;;6.90;99.90;;;;;;5054055;28;20496;-47
2022/01/22 07:16:48;;;;;;;8.20;4.93;;;6.80;99.90;;;;;;5053765;28;20059;-49
2022/01/22 07:19:18;;;;;;;7.30;5.18;;;6.80;99.90;;;;;;5053903;28;20029;-47
2022/01/22 07:21:47;;;;;;;7.30;5.32;;;6.80;99.90;;;;;;5053876;28;20020;-47
2022/01/22 07:24:26;;;;;;;8.98;5.85;;;6.70;99.90;;;;;;5036048;28;20020;-47
2022/01/22 07:26:53;;;;;;;7.95;5.07;;;6.70;99.90;;;;;;5035944;28;20031;-47
2022/01/22 07:29:19;;;;;;;6.40;4.70;;;6.80;99.90;;;;;;5053903;28;20029;-53
2022/01/22 07:31:45;;;;;;;7.57;4.63;;;6.80;99.90;;;;;;5035972;28;20028;-48
2022/01/22 07:34:11;;;;;;;6.40;4.93;;;6.80;99.90;;;;;;5053899;28;20029;-46
2022/01/22 07:36:36;;;;;;;8.43;4.97;;;6.80;99.90;;;;;;5036438;28;20021;-47
2022/01/22 07:39:03;;;;;;;7.95;5.35;;;6.80;99.90;;;;;;5035866;28;20028;-46
2022/01/22 07:41:29;;;;;;;18.25;12.30;;;6.80;99.90;;;;;;5053538;28;20035;-49
2022/01/22 07:43:54;;;;;;;10.85;7.88;;;6.80;99.90;;;;;;5035629;28;20017;-46
2022/01/22 07:46:21;;;;;;;9.07;6.07;;;6.80;99.90;;;;;;5035621;28;20029;-50
2022/01/22 07:48:46;;;;;;;11.05;5.75;;;6.80;99.90;;;;;;5035598;28;20032;-47
2022/01/22 07:51:13;;;;;;;6.45;4.78;;;6.80;99.90;;;;;;5035513;28;20025;-46
2022/01/22 07:53:39;;;;;;;5.00;3.83;;;6.90;99.90;;;;;;5053683;28;20021;-48
2022/01/22 07:56:05;;;;;;;7.88;4.50;;;6.90;99.90;;;;;;5053263;28;20095;-48
2022/01/22 07:58:30;;;;;;;8.30;4.60;;;6.90;99.90;;;;;;5053915;28;20075;-46
2022/01/22 08:00:56;;;;;;;5.30;3.78;;;7.00;99.90;;;;;;5035537;28;20044;-48
2022/01/22 08:03:23;;;;;;;6.03;3.97;;;7.10;99.90;;;;;;5035510;28;20025;-50
2022/01/22 08:05:49;;;;;;;7.10;3.75;;;7.10;99.90;;;;;;5035433;28;20443;-49
2022/01/22 08:08:14;;;;;;;9.15;4.65;;;7.30;99.90;;;;;;5035365;28;20473;-52
2022/01/22 08:10:40;;;;;;;5.53;3.67;;;7.30;99.90;;;;;;5036511;28;20025;-50
2022/01/22 08:13:06;;;;;;;6.70;3.80;;;7.30;99.90;;;;;;5053437;28;20029;-52
2022/01/22 08:15:32;;;;;;;6.05;3.40;;;7.30;99.90;;;;;;5035998;28;20028;-51
2022/01/22 08:18:00;;;;;;;8.25;3.92;;;7.30;99.90;;;;;;5053828;28;20104;-48
2022/01/22 08:20:26;;;;;;;5.57;4.10;;;7.30;99.90;;;;;;5035752;28;20028;-48
2022/01/22 08:22:53;;;;;;;6.25;4.05;;;7.30;99.90;;;;;;5036139;28;20025;-50
2022/01/22 08:25:19;;;;;;;4.93;4.00;;;7.30;99.90;;;;;;5036149;28;20090;-47
2022/01/22 08:30:27;;;;;;;4.23;3.23;;;7.30;99.90;;;;;;5053628;28;20033;-47
2022/01/22 08:35:53;;;;;;;3.53;2.55;;;7.50;99.90;;;;;;5053266;28;20025;-48
2022/01/22 08:38:19;;;;;;;3.97;3.15;;;7.50;99.90;;;;;;5035340;28;20102;-48
2022/01/22 08:40:45;;;;;;;5.85;3.65;;;7.60;99.90;;;;;;5036862;28;20067;-50
2022/01/22 08:43:10;;;;;;;6.32;4.28;;;7.60;99.90;;;;;;5039154;28;20052;-48
2022/01/22 08:45:36;;;;;;;7.13;4.65;;;7.50;99.90;;;;;;5057553;28;20025;-49
2022/01/22 08:48:03;;;;;;;7.22;4.85;;;7.50;99.90;;;;;;5056848;28;20025;-49
2022/01/22 08:50:29;;;;;;;6.40;4.57;;;7.50;99.90;;;;;;5039292;28;20483;-50
2022/01/22 08:52:55;;;;;;;30.40;17.52;;;7.50;99.90;;;;;;5057032;28;20071;-49
2022/01/22 08:55:20;;;;;;;10.07;7.18;;;7.50;99.90;;;;;;5040011;28;20021;-50
2022/01/22 08:57:49;;;;;;;5.18;4.25;;;7.50;99.90;;;;;;5038612;28;20057;-48
2022/01/22 09:00:17;;;;;;;5.63;4.53;;;7.50;99.90;;;;;;5038628;28;20025;-50
2022/01/22 09:02:45;;;;;;;5.78;4.30;;;7.50;99.90;;;;;;5039121;28;20029;-50
2022/01/22 09:05:11;;;;;;;5.43;3.95;;;7.50;99.90;;;;;;5038690;28;20024;-50
2022/01/22 09:07:37;;;;;;;5.75;3.40;;;7.60;99.90;;;;;;5056473;28;20021;-52
2022/01/22 09:10:03;;;;;;;5.38;3.35;;;7.70;99.90;;;;;;5056320;28;20036;-48
2022/01/22 09:12:29;;;;;;;8.80;4.25;;;7.80;99.90;;;;;;5038421;28;20021;-48
2022/01/22 09:15:24;;;;;;;4.68;3.50;;;7.80;99.90;;;;;;5056119;28;20027;-48
2022/01/22 09:17:49;;;;;;;6.00;3.92;;;7.90;99.90;;;;;;5039153;28;20033;-49
2022/01/22 09:20:31;;;;;;;4.70;3.38;;;7.90;99.90;;;;;;5039064;28;20033;-50
2022/01/22 09:22:58;;;;;;;5.60;3.75;;;7.80;99.90;;;;;;5056650;28;20084;-53
2022/01/22 09:25:23;;;;;;;4.70;2.97;;;7.90;99.90;;;;;;5038283;28;20090;-53
2022/01/22 09:27:49;;;;;;;4.97;3.40;;;8.00;99.90;;;;;;5038388;28;20119;-49
2022/01/22 09:30:14;;;;;;;3.97;3.05;;;8.00;99.90;;;;;;5055917;28;20025;-49
2022/01/22 09:32:40;;;;;;;4.50;3.17;;;8.00;99.90;;;;;;5055970;28;20025;-48
2022/01/22 09:35:06;;;;;;;5.40;3.45;;;8.10;99.90;;;;;;5055905;28;20079;-48
2022/01/22 09:37:32;;;;;;;5.53;3.58;;;8.20;99.90;;;;;;5055836;28;20014;-51
2022/01/22 09:39:58;;;;;;;6.38;4.25;;;8.10;99.90;;;;;;5038093;28;20103;-49
2022/01/22 09:42:23;;;;;;;6.90;3.75;;;8.10;99.90;;;;;;5055737;28;20025;-49
2022/01/22 09:44:49;;;;;;;5.65;3.50;;;8.10;99.90;;;;;;5037811;28;20029;-50
2022/01/22 09:47:20;;;;;;;3.97;3.17;;;8.10;99.90;;;;;;5037808;28;20396;-51
2022/01/22 09:49:45;;;;;;;5.55;3.60;;;8.10;99.90;;;;;;5055445;28;20021;-49
2022/01/22 09:52:12;;;;;;;4.82;3.42;;;8.10;99.90;;;;;;5054368;28;20025;-48
2022/01/22 09:54:38;;;;;;;6.82;4.03;;;8.10;99.90;;;;;;5055390;28;20029;-48
2022/01/22 09:57:04;;;;;;;6.57;3.70;;;8.10;99.90;;;;;;5037566;28;20021;-49
2022/01/22 09:59:30;;;;;;;5.72;3.55;;;8.10;99.90;;;;;;5037684;28;20025;-51
2022/01/22 10:02:14;;;;;;;4.85;3.47;;;8.10;99.90;;;;;;5055372;28;20028;-48
2022/01/22 10:04:41;;;;;;;5.43;3.78;;;8.20;99.90;;;;;;5037427;28;20055;-48
2022/01/22 10:07:25;;;;;;;4.63;3.00;;;8.20;99.90;;;;;;5037367;28;20029;-48
2022/01/22 10:09:59;;;;;;;5.85;3.47;;;8.30;99.90;;;;;;5055225;28;20025;-49
2022/01/22 10:12:27;;;;;;;8.02;5.68;;;8.30;99.90;;;;;;5055261;28;20032;-50
2022/01/22 10:15:05;;;;;;;6.28;4.32;;;8.30;99.90;;;;;;5038194;28;20021;-48
2022/01/22 10:17:46;;;;;;;7.15;3.97;;;8.30;99.90;;;;;;5054876;28;20025;-50
2022/01/22 10:20:39;;;;;;;6.15;4.07;;;8.30;99.90;;;;;;5055163;28;20096;-53
2022/01/22 10:23:09;;;;;;;6.65;4.30;;;8.40;99.90;;;;;;5036300;28;20063;-49
2022/01/22 10:25:39;;;;;;;7.35;4.47;;;8.40;99.90;;;;;;5055055;28;20022;-50
2022/01/22 10:28:09;;;;;;;9.52;5.55;;;8.40;99.90;;;;;;5054940;28;20078;-48
2022/01/22 10:30:41;;;;;;;6.03;3.80;;;8.50;99.90;;;;;;5055059;28;20021;-50
2022/01/22 10:36:07;;;;;;;4.80;3.22;;;8.50;99.90;;;;;;5055148;28;19949;-57
2022/01/22 10:38:43;;;;;;;4.32;3.47;;;8.50;99.90;;;;;;5036922;28;20021;-51
2022/01/22 10:41:09;;;;;;;4.10;3.05;;;8.50;99.90;;;;;;5038004;28;20024;-53
2022/01/22 10:43:41;;;;;;;5.50;3.50;;;8.50;99.90;;;;;;5036902;28;20029;-51
2022/01/22 10:46:08;;;;;;;4.32;3.25;;;8.60;99.90;;;;;;5036824;28;20032;-52
2022/01/22 10:48:39;;;;;;;5.78;3.15;;;8.50;99.90;;;;;;5036744;28;20029;-51
2022/01/22 10:51:08;;;;;;;5.60;3.17;;;8.50;99.90;;;;;;5054489;28;20021;-52
2022/01/22 10:53:46;;;;;;;5.00;3.15;;;8.60;99.90;;;;;;5036513;28;20111;-53
2022/01/22 10:59:34;;;;;;;5.05;3.22;;;8.60;99.90;;;;;;5054684;28;20024;-56
2022/01/22 11:02:00;;;;;;;3.15;2.10;;;8.60;99.90;;;;;;5036485;28;20025;-55
2022/01/22 11:04:28;;;;;;;3.80;2.78;;;8.70;99.90;;;;;;5054167;28;20032;-59
2022/01/22 11:06:58;;;;;;;3.88;2.95;;;8.70;99.90;;;;;;5036170;28;20021;-57
2022/01/22 11:09:26;;;;;;;4.57;2.88;;;8.70;99.90;;;;;;5036143;28;20037;-53
2022/01/22 11:11:52;;;;;;;5.60;3.13;;;8.60;99.90;;;;;;5037009;28;20021;-55
2022/01/22 11:14:19;;;;;;;4.78;3.08;;;8.60;99.90;;;;;;5054059;28;20025;-54
2022/01/22 11:16:48;;;;;;;4.40;2.70;;;8.60;99.90;;;;;;5036647;28;20025;-54
2022/01/22 11:19:16;;;;;;;4.38;2.80;;;8.60;99.90;;;;;;5036112;28;20021;-55
2022/01/22 11:21:46;;;;;;;6.72;3.55;;;8.70;99.90;;;;;;5036403;28;20515;-56
2022/01/22 11:24:18;;;;;;;4.70;2.92;;;8.70;99.90;;;;;;5035924;28;20017;-57
2022/01/22 11:26:48;;;;;;;2.70;2.10;;;8.70;99.90;;;;;;5053652;28;20082;-53
2022/01/22 11:29:16;;;;;;;4.78;1.75;;;8.70;99.90;;;;;;5036163;28;20381;-52
2022/01/22 11:31:59;;;;;;;2.78;1.80;;;8.60;99.90;;;;;;5053854;28;20013;-58
2022/01/22 11:34:31;;;;;;;2.70;1.77;;;8.50;99.90;;;;;;5054247;28;20025;-51
2022/01/22 11:37:02;;;;;;;3.05;1.67;;;8.60;99.90;;;;;;5036659;28;20025;-55
2022/01/22 11:39:28;;;;;;;5.40;2.60;;;8.70;99.90;;;;;;5036053;28;20480;-54
2022/01/22 11:41:58;;;;;;;3.97;2.17;;;8.80;99.90;;;;;;5036613;28;20024;-56
2022/01/22 11:44:39;;;;;;;4.15;2.50;;;8.80;99.90;;;;;;5036510;28;20021;-54
2022/01/22 11:47:14;;;;;;;4.90;2.40;;;8.90;99.90;;;;;;5036193;28;20086;-57
2022/01/22 11:49:41;;;;;;;4.05;2.90;;;8.80;99.90;;;;;;5036610;28;20025;-51
2022/01/22 11:52:13;;;;;;;12.90;5.43;;;8.80;99.90;;;;;;5035837;28;20059;-52
2022/01/22 11:54:55;;;;;;;4.13;2.90;;;8.80;99.90;;;;;;5054306;28;20035;-54
2022/01/22 11:57:22;;;;;;;5.72;3.70;;;8.70;99.90;;;;;;5035561;28;20021;-53
2022/01/22 11:59:49;;;;;;;3.60;2.78;;;8.80;99.90;;;;;;5035763;28;20036;-52
2022/01/22 12:02:16;;;;;;;4.55;3.05;;;8.70;99.90;;;;;;5053440;28;20031;-53
2022/01/22 12:04:41;;;;;;;5.28;2.55;;;8.80;99.90;;;;;;5035462;28;20056;-56
2022/01/22 12:07:10;;;;;;;4.20;2.25;;;8.90;99.90;;;;;;5053272;28;20053;-53
2022/01/22 12:09:42;;;;;;;6.10;4.40;;;8.80;99.90;;;;;;5035376;28;20032;-55
2022/01/22 12:15:23;;;;;;;7.35;3.22;;;8.90;99.90;;;;;;5052846;28;20036;-50
2022/01/22 12:17:55;;;;;;;11.50;5.80;;;8.80;99.90;;;;;;5053407;28;20059;-54
2022/01/22 12:21:30;;;;;;;8.27;3.67;;;8.80;99.90;;;;;;5053588;28;20048;-54
2022/01/22 12:23:39;;;;;;;8.77;3.67;;;8.90;99.90;;;;;;5052856;28;20032;-52
2022/01/22 12:26:05;;;;;;;10.10;4.93;;;8.80;99.90;;;;;;5052862;28;20021;-56
2022/01/22 12:28:44;;;;;;;7.15;3.47;;;8.90;99.90;;;;;;5035306;28;20096;-51
2022/01/22 12:31:19;;;;;;;6.18;3.25;;;8.90;99.90;;;;;;5035016;28;20492;-57
2022/01/22 12:33:52;;;;;;;6.88;3.60;;;8.90;99.90;;;;;;5052921;28;20025;-53
2022/01/22 12:36:34;;;;;;;7.93;3.95;;;8.90;99.90;;;;;;5053044;28;20057;-53
2022/01/22 12:39:11;;;;;;;5.53;3.58;;;8.90;99.90;;;;;;5035050;28;20036;-56
2022/01/22 12:44:33;;;;;;;7.40;3.70;;;8.90;99.90;;;;;;5061856;28;20025;-50
2022/01/22 12:47:05;;;;;;;11.45;5.00;;;9.00;99.90;;;;;;5063411;28;20044;-51
2022/01/22 12:49:33;;;;;;;8.95;3.80;;;8.90;99.90;;;;;;5036988;28;20023;-58
2022/01/22 12:52:03;;;;;;;10.32;4.78;;;8.90;99.90;;;;;;5034906;28;20021;-54
2022/01/22 12:54:43;;;;;;;8.93;4.75;;;8.90;99.90;;;;;;5036131;28;20031;-56
2022/01/22 12:57:14;;;;;;;41.90;13.88;;;8.90;99.90;;;;;;5053209;28;20017;-57
2022/01/22 13:00:07;;;;;;;12.70;5.68;;;8.90;99.90;;;;;;5034927;28;20025;-57
2022/01/22 13:02:40;;;;;;;9.55;4.45;;;9.00;99.90;;;;;;5052794;28;20021;-59
2022/01/22 13:05:07;;;;;;;6.38;3.97;;;9.10;99.90;;;;;;5052638;28;20025;-57
2022/01/22 13:07:40;;;;;;;11.23;4.15;;;9.10;99.90;;;;;;5052981;28;20024;-60
2022/01/22 13:10:08;;;;;;;8.07;4.45;;;9.10;99.90;;;;;;5035011;28;20025;-58
2022/01/22 13:12:41;;;;;;;15.80;7.57;;;9.00;99.90;;;;;;5035836;28;20021;-59
2022/01/22 13:15:10;;;;;;;5.88;3.33;;;9.00;99.90;;;;;;5035627;28;20025;-57
2022/01/22 13:17:38;;;;;;;9.40;4.20;;;9.20;99.90;;;;;;5034867;28;20033;-60
2022/01/22 13:20:05;;;;;;;6.43;4.18;;;9.20;99.90;;;;;;5052484;28;20091;-60
2022/01/22 13:22:39;;;;;;;10.85;5.43;;;9.20;99.90;;;;;;5052441;28;20025;-58
2022/01/22 13:25:08;;;;;;;6.88;3.40;;;9.20;99.90;;;;;;5034682;28;20032;-61
2022/01/22 13:27:35;;;;;;;8.68;3.25;;;9.20;99.90;;;;;;5055374;28;20017;-60
2022/01/22 13:30:03;;;;;;;4.90;2.80;;;9.30;99.90;;;;;;5038500;28;20032;-55
2022/01/22 13:49:14;;;;;;;4.88;2.72;;;9.40;99.90;;;;;;5056008;28;20039;-54
2022/01/22 13:51:41;;;;;;;5.63;3.10;;;9.40;99.90;;;;;;5055542;28;20516;-57
2022/01/22 13:54:09;;;;;;;8.73;3.00;;;9.30;99.90;;;;;;5037680;28;20122;-57
2022/01/22 13:57:07;;;;;;;4.45;2.92;;;9.30;99.90;;;;;;5055567;28;20080;-55
2022/01/22 13:59:39;;;;;;;5.00;3.00;;;9.20;99.90;;;;;;5055156;28;20032;-56
2022/01/22 14:04:53;;;;;;;6.00;3.70;;;9.10;99.90;;;;;;5055787;28;20029;-58
2022/01/22 14:07:38;;;;;;;8.60;3.78;;;9.10;99.90;;;;;;5055274;28;20024;-59
2022/01/22 14:10:21;;;;;;;7.53;4.28;;;9.10;99.90;;;;;;5037421;28;20024;-58
2022/01/22 14:12:52;;;;;;;8.00;4.22;;;9.00;99.90;;;;;;5037481;28;20021;-56
2022/01/22 14:15:24;;;;;;;7.07;3.95;;;9.00;99.90;;;;;;5037779;28;20082;-58
2022/01/22 14:18:15;;;;;;;8.45;4.22;;;8.90;99.90;;;;;;5055335;28;20545;-57
2022/01/22 14:20:54;;;;;;;8.80;4.10;;;8.90;99.90;;;;;;5037213;28;20078;-56
2022/01/22 14:23:23;;;;;;;6.57;3.47;;;9.00;99.90;;;;;;5037514;28;20060;-57
2022/01/22 14:26:05;;;;;;;6.85;3.88;;;9.00;99.90;;;;;;5055184;28;20033;-58
2022/01/22 14:28:40;;;;;;;5.20;3.40;;;9.10;99.90;;;;;;5037040;28;20021;-54
2022/01/22 14:31:38;;;;;;;5.72;3.95;;;9.10;99.90;;;;;;5055102;28;20025;-56
2022/01/22 14:34:06;;;;;;;9.05;3.33;;;9.20;99.90;;;;;;5049369;28;20100;-57
2022/01/22 14:36:42;;;;;;;6.13;3.58;;;9.10;99.90;;;;;;5054696;28;20017;-57
2022/01/22 14:44:57;;;;;;;5.15;3.55;;;9.00;99.90;;;;;;5054465;28;20095;-57
2022/01/22 14:50:44;;;;;;;7.70;4.05;;;9.00;99.90;;;;;;5054619;28;20119;-54
2022/01/22 14:53:10;;;;;;;7.05;4.32;;;8.90;99.90;;;;;;5036793;28;20028;-59
2022/01/22 14:55:36;;;;;;;6.88;4.18;;;9.00;99.90;;;;;;5036480;28;20017;-57
2022/01/22 14:58:02;;;;;;;8.45;3.95;;;8.90;99.90;;;;;;5036246;28;20028;-57
2022/01/22 15:00:27;;;;;;;6.03;3.88;;;8.90;99.90;;;;;;5035858;28;20090;-53
2022/01/22 15:02:53;;;;;;;9.40;4.80;;;8.90;99.90;;;;;;5054339;28;20451;-55
2022/01/22 15:05:18;;;;;;;6.15;3.63;;;8.90;99.90;;;;;;5036391;28;20063;-56
2022/01/22 15:07:46;;;;;;;5.90;3.78;;;8.90;99.90;;;;;;5036420;28;20567;-55
2022/01/22 15:10:17;;;;;;;8.52;3.90;;;8.90;99.90;;;;;;5053788;28;20103;-53
2022/01/22 15:12:43;;;;;;;7.43;4.20;;;8.80;99.90;;;;;;5054062;28;20075;-54
2022/01/22 15:15:11;;;;;;;6.70;4.15;;;8.90;99.90;;;;;;5054544;28;20029;-53
2022/01/22 15:20:03;;;;;;;5.40;3.60;;;8.80;99.90;;;;;;5053909;28;20025;-55
2022/01/22 15:22:28;;;;;;;6.82;4.03;;;8.80;99.90;;;;;;5036080;28;20146;-55
2022/01/22 15:24:54;;;;;;;8.00;4.35;;;8.80;99.90;;;;;;5036367;28;20021;-54
2022/01/22 15:27:20;;;;;;;7.75;4.32;;;8.90;99.90;;;;;;5037017;28;20094;-56
2022/01/22 15:30:22;;;;;;;10.88;4.50;;;8.80;99.90;;;;;;5053703;28;20151;-56